createdAt,value
2019-02-03T00:00:39.131Z,153.12
2019-02-03T00:01:42.935Z,152.43
2019-02-03T00:02:46.624Z,151.95
2019-02-03T00:03:50.349Z,151.37
2019-02-03T00:04:54.010Z,144.95
2019-02-03T00:05:57.656Z,151.65
2019-02-03T00:07:03.326Z,150.45
2019-02-03T00:08:06.567Z,152.38
2019-02-03T00:09:15.045Z,145.10
2019-02-03T00:10:18.712Z,149.00
2019-02-03T00:11:22.492Z,160.85
2019-02-03T00:12:26.083Z,180.72
2019-02-03T00:13:31.236Z,144.15
2019-02-03T00:14:34.944Z,167.60
2019-02-03T00:15:38.608Z,155.40
2019-02-03T00:16:42.545Z,144.10
2019-02-03T00:17:46.429Z,148.45
2019-02-03T00:18:50.084Z,165.65
2019-02-03T00:19:53.735Z,149.82
2019-02-03T00:20:57.484Z,150.27
2019-02-03T00:22:01.068Z,150.50
2019-02-03T00:23:04.733Z,166.75
2019-02-03T00:24:08.529Z,161.57
2019-02-03T00:25:12.198Z,169.45
2019-02-03T00:26:17.799Z,140.85
2019-02-03T00:27:21.109Z,153.02
2019-02-03T00:28:24.716Z,157.82
2019-02-03T00:29:28.328Z,156.55
2019-02-03T00:30:31.924Z,171.85
2019-02-03T00:31:35.502Z,160.25
2019-02-03T00:32:39.362Z,152.93
2019-02-03T00:33:43.358Z,171.00
2019-02-03T00:34:46.944Z,161.35
2019-02-03T00:35:50.633Z,158.27
2019-02-03T00:36:54.234Z,163.85
2019-02-03T00:37:57.883Z,170.22
2019-02-03T00:39:01.520Z,160.07
2019-02-03T00:40:08.277Z,169.93
2019-02-03T00:41:11.846Z,153.87
2019-02-03T00:42:15.583Z,141.68
2019-02-03T00:43:19.253Z,142.60
2019-02-03T00:44:22.909Z,152.22
2019-02-03T00:45:26.521Z,163.32
2019-02-03T00:46:30.320Z,152.57
2019-02-03T00:47:34.054Z,144.85
2019-02-03T00:48:37.636Z,149.40
2019-02-03T00:49:41.553Z,148.97
2019-02-03T00:50:45.185Z,142.13
2019-02-03T00:51:48.799Z,147.60
2019-02-03T00:52:52.396Z,150.53
2019-02-03T00:53:56.042Z,143.20
2019-02-03T00:54:59.633Z,139.95
2019-02-03T00:56:03.289Z,139.20
2019-02-03T00:57:06.870Z,143.02
2019-02-03T00:58:10.471Z,144.43
2019-02-03T00:59:14.212Z,140.28
2019-02-03T01:00:18.351Z,141.45
2019-02-03T01:01:22.016Z,143.72
2019-02-03T01:02:25.669Z,139.72
2019-02-03T01:03:29.514Z,132.65
2019-02-03T01:04:33.236Z,146.82
2019-02-03T01:05:37.320Z,140.70
2019-02-03T01:06:41.061Z,129.75
2019-02-03T01:07:44.738Z,147.55
2019-02-03T01:08:48.410Z,137.37
2019-02-03T01:09:52.004Z,139.70
2019-02-03T01:10:55.778Z,130.78
2019-02-03T01:11:59.387Z,130.05
2019-02-03T01:13:02.983Z,131.52
2019-02-03T01:14:06.711Z,130.47
2019-02-03T01:15:10.536Z,131.12
2019-02-03T01:16:14.339Z,135.35
2019-02-03T01:17:17.990Z,133.60
2019-02-03T01:18:21.599Z,136.35
2019-02-03T01:19:25.200Z,128.97
2019-02-03T01:20:29.337Z,121.60
2019-02-03T01:21:32.980Z,125.65
2019-02-03T01:22:36.580Z,135.32
2019-02-03T01:23:40.180Z,117.55
2019-02-03T01:24:43.829Z,121.10
2019-02-03T01:25:47.443Z,123.53
2019-02-03T01:26:51.126Z,128.18
2019-02-03T01:27:54.704Z,123.30
2019-02-03T01:28:58.307Z,122.65
2019-02-03T01:30:02.023Z,119.87
2019-02-03T01:31:05.707Z,118.30
2019-02-03T01:32:09.402Z,120.40
2019-02-03T01:33:13.066Z,119.97
2019-02-03T01:34:16.655Z,121.37
2019-02-03T01:35:20.567Z,127.90
2019-02-03T01:36:24.224Z,120.82
2019-02-03T01:37:38.868Z,123.50
2019-02-03T01:38:33.079Z,120.08
2019-02-03T01:39:36.722Z,139.25
2019-02-03T01:40:40.328Z,121.17
2019-02-03T01:41:43.995Z,117.40
2019-02-03T01:42:47.915Z,115.22
2019-02-03T01:43:51.572Z,110.65
2019-02-03T01:44:55.211Z,109.30
2019-02-03T01:45:58.798Z,106.80
2019-02-03T01:47:02.384Z,105.83
2019-02-03T01:48:06.028Z,101.27
2019-02-03T01:49:09.705Z,105.05
2019-02-03T01:50:14.841Z,100.53
2019-02-03T01:51:18.797Z,100.95
2019-02-03T01:52:22.379Z,100.40
2019-02-03T01:53:26.010Z,102.90
2019-02-03T01:54:29.591Z,102.17
2019-02-03T01:55:33.189Z,103.17
2019-02-03T01:56:36.794Z,98.35
2019-02-03T01:57:40.423Z,98.22
2019-02-03T01:58:44.026Z,94.65
2019-02-03T01:59:47.671Z,97.37
2019-02-03T02:00:51.262Z,102.78
2019-02-03T02:01:54.864Z,102.22
2019-02-03T02:02:58.554Z,103.50
2019-02-03T02:04:02.211Z,100.95
2019-02-03T02:05:06.699Z,101.20
2019-02-03T02:06:10.578Z,91.28
2019-02-03T02:07:14.374Z,102.47
2019-02-03T02:08:17.955Z,92.22
2019-02-03T02:09:21.613Z,104.72
2019-02-03T02:10:28.929Z,96.20
2019-02-03T02:11:32.559Z,100.65
2019-02-03T02:12:36.156Z,92.33
2019-02-03T02:13:39.749Z,85.45
2019-02-03T02:14:43.342Z,93.03
2019-02-03T02:15:47.012Z,86.87
2019-02-03T02:16:50.610Z,81.95
2019-02-03T02:17:54.259Z,88.95
2019-02-03T02:18:57.862Z,96.57
2019-02-03T02:20:01.455Z,89.65
2019-02-03T02:21:05.164Z,84.97
2019-02-03T02:22:08.961Z,91.42
2019-02-03T02:23:12.759Z,98.45
2019-02-03T02:24:16.349Z,94.40
2019-02-03T02:25:20.072Z,82.45
2019-02-03T02:26:23.700Z,87.40
2019-02-03T02:27:27.400Z,103.00
2019-02-03T02:28:31.060Z,93.40
2019-02-03T02:29:34.646Z,95.45
2019-02-03T02:30:38.381Z,94.95
2019-02-03T02:31:42.006Z,90.62
2019-02-03T02:32:45.650Z,97.00
2019-02-03T02:33:49.334Z,89.40
2019-02-03T02:34:52.923Z,101.80
2019-02-03T02:35:56.513Z,91.82
2019-02-03T02:37:00.332Z,87.25
2019-02-03T02:38:06.786Z,90.00
2019-02-03T02:39:09.962Z,87.88
2019-02-03T02:40:21.484Z,95.77
2019-02-03T02:41:25.070Z,96.50
2019-02-03T02:42:28.736Z,104.65
2019-02-03T02:43:32.345Z,91.25
2019-02-03T02:44:36.015Z,101.92
2019-02-03T02:45:39.739Z,101.62
2019-02-03T02:46:43.325Z,93.87
2019-02-03T02:47:47.321Z,88.90
2019-02-03T02:48:50.910Z,86.60
2019-02-03T02:49:54.618Z,98.95
2019-02-03T02:50:58.197Z,96.45
2019-02-03T02:52:02.019Z,104.00
2019-02-03T02:53:05.752Z,93.78
2019-02-03T02:54:09.380Z,108.42
2019-02-03T02:55:13.644Z,94.40
2019-02-03T02:56:17.237Z,99.80
2019-02-03T02:57:20.840Z,95.35
2019-02-03T02:58:24.497Z,84.03
2019-02-03T02:59:28.085Z,98.12
2019-02-03T03:00:31.765Z,91.00
2019-02-03T03:01:35.443Z,91.50
2019-02-03T03:02:39.040Z,94.80
2019-02-03T03:03:42.737Z,103.97
2019-02-03T03:04:46.416Z,93.05
2019-02-03T03:05:50.017Z,98.50
2019-02-03T03:06:53.636Z,94.17
2019-02-03T03:07:57.492Z,94.65
2019-02-03T03:09:01.188Z,90.32
2019-02-03T03:10:08.400Z,97.15
2019-02-03T03:11:12.426Z,95.67
2019-02-03T03:12:16.004Z,94.50
2019-02-03T03:13:19.589Z,90.65
2019-02-03T03:14:23.173Z,93.62
2019-02-03T03:15:26.870Z,102.92
2019-02-03T03:16:30.499Z,96.10
2019-02-03T03:17:34.141Z,91.20
2019-02-03T03:18:37.846Z,105.47
2019-02-03T03:19:41.458Z,91.67
2019-02-03T03:20:45.062Z,82.60
2019-02-03T03:21:48.764Z,91.67
2019-02-03T03:22:52.461Z,91.80
2019-02-03T03:23:56.120Z,91.87
2019-02-03T03:24:59.795Z,99.55
2019-02-03T03:26:04.012Z,92.22
2019-02-03T03:27:07.593Z,98.78
2019-02-03T03:28:11.191Z,81.02
2019-02-03T03:29:14.779Z,94.45
2019-02-03T03:30:28.654Z,90.32
2019-02-03T03:31:32.491Z,95.12
2019-02-03T03:32:36.074Z,94.55
2019-02-03T03:33:39.673Z,83.10
2019-02-03T03:34:43.251Z,87.40
2019-02-03T03:35:46.853Z,89.28
2019-02-03T03:36:50.470Z,87.45
2019-02-03T03:37:54.215Z,92.88
2019-02-03T03:38:57.914Z,87.75
2019-02-03T03:40:01.502Z,86.17
2019-02-03T03:41:05.239Z,79.72
2019-02-03T03:42:08.870Z,93.37
2019-02-03T03:43:12.740Z,80.42
2019-02-03T03:44:16.739Z,80.22
2019-02-03T03:45:20.878Z,87.50
2019-02-03T03:46:24.511Z,84.62
2019-02-03T03:47:28.105Z,85.20
2019-02-03T03:48:31.683Z,80.05
2019-02-03T03:49:35.329Z,89.65
2019-02-03T03:50:38.905Z,77.45
2019-02-03T03:51:42.506Z,84.95
2019-02-03T03:52:46.081Z,88.72
2019-02-03T03:53:49.719Z,83.75
2019-02-03T03:54:53.320Z,82.20
2019-02-03T03:55:56.943Z,79.20
2019-02-03T03:57:00.605Z,86.92
2019-02-03T03:58:04.529Z,80.70
2019-02-03T03:59:08.496Z,83.78
2019-02-03T04:00:15.293Z,83.42
2019-02-03T04:01:18.955Z,79.32
2019-02-03T04:02:22.666Z,73.33
2019-02-03T04:03:26.364Z,85.85
2019-02-03T04:04:29.950Z,81.30
2019-02-03T04:05:33.623Z,82.42
2019-02-03T04:06:37.394Z,75.85
2019-02-03T04:07:41.058Z,82.47
2019-02-03T04:08:45.790Z,72.37
2019-02-03T04:09:49.617Z,81.57
2019-02-03T04:10:53.409Z,76.72
2019-02-03T04:11:57.012Z,84.22
2019-02-03T04:13:00.657Z,88.30
2019-02-03T04:14:04.682Z,89.92
2019-02-03T04:15:11.415Z,88.12
2019-02-03T04:16:15.392Z,78.12
2019-02-03T04:17:18.975Z,92.22
2019-02-03T04:18:22.635Z,80.30
2019-02-03T04:19:26.205Z,86.75
2019-02-03T04:20:30.979Z,81.40
2019-02-03T04:21:34.616Z,78.55
2019-02-03T04:22:38.204Z,84.52
2019-02-03T04:23:41.859Z,78.83
2019-02-03T04:24:45.474Z,92.90
2019-02-03T04:25:50.770Z,87.47
2019-02-03T04:26:54.356Z,81.40
2019-02-03T04:27:58.018Z,89.05
2019-02-03T04:29:01.639Z,84.10
2019-02-03T04:30:08.308Z,86.15
2019-02-03T04:31:11.981Z,80.32
2019-02-03T04:32:15.864Z,77.37
2019-02-03T04:33:19.633Z,85.95
2019-02-03T04:34:23.216Z,88.10
2019-02-03T04:35:26.877Z,84.52
2019-02-03T04:36:30.493Z,83.90
2019-02-03T04:37:34.159Z,75.15
2019-02-03T04:38:37.825Z,81.42
2019-02-03T04:39:41.464Z,80.32
2019-02-03T04:40:45.187Z,87.80
2019-02-03T04:41:48.966Z,76.85
2019-02-03T04:42:52.555Z,82.37
2019-02-03T04:43:56.250Z,89.83
2019-02-03T04:44:59.902Z,81.20
2019-02-03T04:46:03.495Z,94.40
2019-02-03T04:47:07.431Z,89.20
2019-02-03T04:48:11.231Z,82.62
2019-02-03T04:49:14.828Z,78.52
2019-02-03T04:50:20.208Z,80.87
2019-02-03T04:51:23.832Z,83.47
2019-02-03T04:52:27.427Z,81.15
2019-02-03T04:53:31.039Z,82.05
2019-02-03T04:54:34.664Z,89.28
2019-02-03T04:55:38.337Z,88.85
2019-02-03T04:56:41.935Z,84.92
2019-02-03T04:57:45.548Z,78.30
2019-02-03T04:58:49.135Z,87.15
2019-02-03T04:59:52.737Z,80.77
2019-02-03T05:00:56.366Z,81.92
2019-02-03T05:01:59.954Z,85.80
2019-02-03T05:03:03.870Z,87.37
2019-02-03T05:04:07.513Z,87.60
2019-02-03T05:05:11.249Z,78.00
2019-02-03T05:06:14.889Z,84.83
2019-02-03T05:07:18.546Z,85.87
2019-02-03T05:08:22.158Z,78.57
2019-02-03T05:09:25.737Z,80.00
2019-02-03T05:10:29.331Z,86.00
2019-02-03T05:11:32.982Z,92.37
2019-02-03T05:12:36.567Z,84.22
2019-02-03T05:13:40.223Z,82.05
2019-02-03T05:14:43.824Z,86.63
2019-02-03T05:15:47.436Z,90.97
2019-02-03T05:16:51.039Z,81.72
2019-02-03T05:17:54.979Z,86.45
2019-02-03T05:18:58.700Z,86.53
2019-02-03T05:20:02.388Z,83.50
2019-02-03T05:21:06.122Z,85.47
2019-02-03T05:22:09.762Z,84.67
2019-02-03T05:23:13.382Z,77.67
2019-02-03T05:24:17.056Z,88.33
2019-02-03T05:25:20.719Z,85.12
2019-02-03T05:26:24.320Z,95.95
2019-02-03T05:27:27.922Z,90.30
2019-02-03T05:28:31.572Z,84.00
2019-02-03T05:29:35.167Z,77.10
2019-02-03T05:30:38.803Z,80.20
2019-02-03T05:31:42.416Z,83.25
2019-02-03T05:32:46.378Z,81.35
2019-02-03T05:33:50.099Z,80.00
2019-02-03T05:34:53.790Z,78.78
2019-02-03T05:35:57.389Z,88.42
2019-02-03T05:37:00.974Z,84.25
2019-02-03T05:38:04.971Z,75.62
2019-02-03T05:39:08.621Z,89.32
2019-02-03T05:40:14.505Z,73.70
2019-02-03T05:41:18.062Z,81.00
2019-02-03T05:42:21.651Z,81.02
2019-02-03T05:43:25.273Z,85.62
2019-02-03T05:44:28.903Z,80.67
2019-02-03T05:45:32.531Z,77.12
2019-02-03T05:46:36.134Z,78.90
2019-02-03T05:47:39.917Z,81.92
2019-02-03T05:48:43.844Z,77.75
2019-02-03T05:49:47.437Z,77.82
2019-02-03T05:50:51.182Z,75.92
2019-02-03T05:51:54.780Z,77.47
2019-02-03T05:52:58.382Z,74.40
2019-02-03T05:54:01.969Z,75.90
2019-02-03T05:55:06.852Z,78.17
2019-02-03T05:56:10.432Z,79.55
2019-02-03T05:57:14.127Z,80.75
2019-02-03T05:58:17.719Z,81.05
2019-02-03T05:59:21.355Z,85.47
2019-02-03T06:00:28.346Z,71.72
2019-02-03T06:01:31.933Z,84.70
2019-02-03T06:02:35.520Z,77.15
2019-02-03T06:03:39.263Z,79.03
2019-02-03T06:04:43.183Z,77.22
2019-02-03T06:05:46.829Z,81.40
2019-02-03T06:06:50.415Z,74.03
2019-02-03T06:07:54.066Z,79.20
2019-02-03T06:08:57.691Z,72.30
2019-02-03T06:10:01.287Z,82.95
2019-02-03T06:11:05.217Z,70.60
2019-02-03T06:12:08.949Z,71.33
2019-02-03T06:13:12.527Z,81.97
2019-02-03T06:14:16.183Z,69.85
2019-02-03T06:15:19.770Z,77.22
2019-02-03T06:16:23.355Z,89.80
2019-02-03T06:17:26.949Z,81.95
2019-02-03T06:18:30.572Z,77.87
2019-02-03T06:19:34.453Z,68.67
2019-02-03T06:20:38.092Z,70.20
2019-02-03T06:21:41.708Z,74.20
2019-02-03T06:22:46.128Z,72.05
2019-02-03T06:23:49.716Z,61.58
2019-02-03T06:24:53.312Z,74.30
2019-02-03T06:25:56.924Z,69.75
2019-02-03T06:27:00.530Z,80.42
2019-02-03T06:28:04.387Z,71.17
2019-02-03T06:29:08.147Z,62.30
2019-02-03T06:30:23.673Z,68.78
2019-02-03T06:31:27.245Z,67.87
2019-02-03T06:32:30.839Z,69.55
2019-02-03T06:33:34.639Z,66.55
2019-02-03T06:34:38.214Z,66.17
2019-02-03T06:35:41.797Z,70.03
2019-02-03T06:36:45.393Z,60.60
2019-02-03T06:37:49.570Z,58.68
2019-02-03T06:38:53.342Z,71.90
2019-02-03T06:39:56.995Z,60.50
2019-02-03T06:41:00.841Z,67.70
2019-02-03T06:42:04.753Z,63.17
2019-02-03T06:43:08.410Z,65.87
2019-02-03T06:44:12.047Z,62.88
2019-02-03T06:45:23.064Z,59.38
2019-02-03T06:46:33.904Z,54.33
2019-02-03T06:47:37.547Z,62.70
2019-02-03T06:48:41.148Z,77.12
2019-02-03T06:49:44.768Z,55.78
2019-02-03T06:50:48.446Z,55.63
2019-02-03T06:51:52.134Z,62.50
2019-02-03T06:52:55.784Z,62.60
2019-02-03T06:53:59.377Z,61.42
2019-02-03T06:55:03.179Z,70.75
2019-02-03T06:56:06.870Z,63.02
2019-02-03T06:57:10.756Z,63.17
2019-02-03T06:58:14.471Z,67.87
2019-02-03T06:59:18.096Z,59.55
2019-02-03T07:00:21.837Z,58.68
2019-02-03T07:01:25.500Z,64.32
2019-02-03T07:02:29.135Z,60.12
2019-02-03T07:03:32.765Z,53.05
2019-02-03T07:04:36.441Z,60.48
2019-02-03T07:05:40.089Z,61.53
2019-02-03T07:06:43.697Z,60.03
2019-02-03T07:07:47.495Z,62.00
2019-02-03T07:08:51.080Z,60.40
2019-02-03T07:10:00.518Z,59.03
2019-02-03T07:10:59.956Z,56.58
2019-02-03T07:12:04.396Z,61.63
2019-02-03T07:13:07.993Z,60.28
2019-02-03T07:14:11.601Z,60.70
2019-02-03T07:15:15.298Z,59.35
2019-02-03T07:16:18.937Z,60.65
2019-02-03T07:17:22.529Z,54.93
2019-02-03T07:18:26.112Z,52.70
2019-02-03T07:19:29.769Z,56.68
2019-02-03T07:20:33.431Z,62.58
2019-02-03T07:21:37.137Z,62.55
2019-02-03T07:22:40.721Z,48.80
2019-02-03T07:23:44.328Z,49.42
2019-02-03T07:24:47.908Z,50.70
2019-02-03T07:25:51.607Z,54.25
2019-02-03T07:26:55.501Z,59.75
2019-02-03T07:27:59.132Z,58.17
2019-02-03T07:29:02.787Z,56.35
2019-02-03T07:30:20.449Z,57.23
2019-02-03T07:31:24.113Z,50.83
2019-02-03T07:32:27.717Z,50.75
2019-02-03T07:33:31.327Z,59.18
2019-02-03T07:34:34.913Z,53.80
2019-02-03T07:35:38.614Z,55.60
2019-02-03T07:36:42.295Z,53.23
2019-02-03T07:37:46.053Z,60.12
2019-02-03T07:38:49.622Z,57.00
2019-02-03T07:39:53.212Z,56.30
2019-02-03T07:40:56.943Z,55.00
2019-02-03T07:42:00.609Z,56.92
2019-02-03T07:43:04.462Z,58.02
2019-02-03T07:44:08.123Z,53.45
2019-02-03T07:45:12.275Z,87.37
2019-02-03T07:46:15.869Z,93.47
2019-02-03T07:47:19.498Z,55.45
2019-02-03T07:48:23.130Z,54.20
2019-02-03T07:49:26.750Z,78.57
2019-02-03T07:50:30.511Z,79.45
2019-02-03T07:51:34.310Z,62.65
2019-02-03T07:52:38.643Z,49.40
2019-02-03T07:53:42.287Z,56.25
2019-02-03T07:54:45.884Z,53.75
2019-02-03T07:55:49.516Z,68.87
2019-02-03T07:56:53.115Z,57.67
2019-02-03T07:57:56.766Z,62.93
2019-02-03T07:59:00.344Z,60.48
2019-02-03T08:00:06.978Z,57.55
2019-02-03T08:01:10.989Z,57.03
2019-02-03T08:02:14.615Z,53.87
2019-02-03T08:03:18.285Z,53.00
2019-02-03T08:04:21.948Z,53.40
2019-02-03T08:05:25.531Z,54.05
2019-02-03T08:06:29.188Z,58.70
2019-02-03T08:07:32.855Z,57.20
2019-02-03T08:08:36.458Z,53.68
2019-02-03T08:09:40.060Z,52.43
2019-02-03T08:10:43.645Z,50.52
2019-02-03T08:11:47.389Z,71.02
2019-02-03T08:12:50.935Z,50.80
2019-02-03T08:13:54.623Z,53.70
2019-02-03T08:14:58.464Z,75.95
2019-02-03T08:16:02.436Z,60.73
2019-02-03T08:17:06.147Z,68.33
2019-02-03T08:18:09.930Z,63.20
2019-02-03T08:19:13.585Z,53.17
2019-02-03T08:20:19.984Z,65.60
2019-02-03T08:21:23.579Z,48.60
2019-02-03T08:22:27.167Z,56.98
2019-02-03T08:23:30.801Z,60.20
2019-02-03T08:24:34.522Z,47.70
2019-02-03T08:25:38.172Z,41.73
2019-02-03T08:26:41.769Z,50.78
2019-02-03T08:27:45.436Z,48.02
2019-02-03T08:28:49.015Z,47.00
2019-02-03T08:29:52.661Z,45.50
2019-02-03T08:30:56.613Z,43.38
2019-02-03T08:32:00.196Z,50.35
2019-02-03T08:33:03.924Z,36.60
2019-02-03T08:34:07.544Z,40.70
2019-02-03T08:35:11.241Z,48.92
2019-02-03T08:36:14.884Z,49.23
2019-02-03T08:37:18.519Z,45.75
2019-02-03T08:38:22.098Z,40.75
2019-02-03T08:39:25.744Z,38.15
2019-02-03T08:40:37.175Z,74.65
2019-02-03T08:41:34.687Z,47.38
2019-02-03T08:42:38.271Z,38.20
2019-02-03T08:43:41.898Z,46.80
2019-02-03T08:44:45.579Z,44.75
2019-02-03T08:45:49.521Z,58.63
2019-02-03T08:46:53.135Z,48.75
2019-02-03T08:47:56.843Z,53.08
2019-02-03T08:49:00.454Z,45.23
2019-02-03T08:50:06.570Z,48.98
2019-02-03T08:51:10.161Z,37.08
2019-02-03T08:52:13.797Z,45.48
2019-02-03T08:53:17.422Z,45.98
2019-02-03T08:54:21.013Z,44.88
2019-02-03T08:55:24.706Z,44.05
2019-02-03T08:56:28.349Z,51.25
2019-02-03T08:57:31.944Z,48.05
2019-02-03T08:58:35.569Z,46.65
2019-02-03T08:59:39.162Z,51.08
2019-02-03T09:00:43.035Z,57.67
2019-02-03T09:01:47.132Z,60.10
2019-02-03T09:02:51.049Z,46.18
2019-02-03T09:03:54.633Z,49.50
2019-02-03T09:04:58.290Z,76.87
2019-02-03T09:06:01.973Z,48.65
2019-02-03T09:07:05.625Z,43.78
2019-02-03T09:08:09.257Z,45.80
2019-02-03T09:09:12.843Z,35.78
2019-02-03T09:10:21.721Z,70.85
2019-02-03T09:11:25.431Z,46.15
2019-02-03T09:12:29.020Z,63.20
2019-02-03T09:13:32.656Z,42.03
2019-02-03T09:14:36.245Z,56.25
2019-02-03T09:15:39.837Z,45.85
2019-02-03T09:16:43.688Z,69.70
2019-02-03T09:17:47.577Z,43.50
2019-02-03T09:18:51.208Z,57.05
2019-02-03T09:19:57.843Z,67.62
2019-02-03T09:21:00.027Z,86.15
2019-02-03T09:22:03.845Z,54.18
2019-02-03T09:23:07.573Z,40.10
2019-02-03T09:24:11.281Z,49.18
2019-02-03T09:25:14.953Z,57.93
2019-02-03T09:26:18.523Z,37.17
2019-02-03T09:27:22.150Z,33.28
2019-02-03T09:28:25.782Z,34.63
2019-02-03T09:29:29.380Z,38.95
2019-02-03T09:30:37.459Z,34.53
2019-02-03T09:31:41.207Z,35.58
2019-02-03T09:32:44.799Z,48.02
2019-02-03T09:33:48.710Z,37.67
2019-02-03T09:34:52.299Z,42.20
2019-02-03T09:35:55.882Z,35.95
2019-02-03T09:36:59.542Z,39.05
2019-02-03T09:38:03.368Z,45.63
2019-02-03T09:39:09.714Z,37.33
2019-02-03T09:40:19.278Z,43.38
2019-02-03T09:41:22.979Z,31.90
2019-02-03T09:42:26.581Z,32.65
2019-02-03T09:43:30.288Z,43.60
2019-02-03T09:44:33.979Z,43.55
2019-02-03T09:45:37.624Z,38.60
2019-02-03T09:46:41.396Z,36.88
2019-02-03T09:47:45.100Z,38.70
2019-02-03T09:48:48.707Z,34.75
2019-02-03T09:49:52.381Z,34.48
2019-02-03T09:50:56.317Z,34.95
2019-02-03T09:52:00.036Z,36.33
2019-02-03T09:53:04.142Z,33.15
2019-02-03T09:54:07.830Z,32.78
2019-02-03T09:55:11.560Z,34.78
2019-02-03T09:56:15.232Z,30.05
2019-02-03T09:57:19.016Z,33.85
2019-02-03T09:58:22.647Z,33.55
2019-02-03T09:59:26.367Z,29.95
2019-02-03T10:00:35.066Z,34.20
2019-02-03T10:01:38.680Z,29.48
2019-02-03T10:02:42.348Z,27.82
2019-02-03T10:03:45.925Z,28.12
2019-02-03T10:04:49.552Z,31.12
2019-02-03T10:05:53.463Z,32.38
2019-02-03T10:06:57.342Z,31.33
2019-02-03T10:08:00.956Z,32.53
2019-02-03T10:09:06.926Z,28.83
2019-02-03T10:10:13.651Z,28.70
2019-02-03T10:11:17.317Z,33.00
2019-02-03T10:12:20.920Z,25.70
2019-02-03T10:13:24.604Z,29.00
2019-02-03T10:14:28.313Z,31.90
2019-02-03T10:15:32.248Z,29.92
2019-02-03T10:16:35.879Z,24.72
2019-02-03T10:17:39.537Z,33.40
2019-02-03T10:18:43.127Z,30.75
2019-02-03T10:19:46.768Z,37.60
2019-02-03T10:20:50.472Z,30.45
2019-02-03T10:21:54.124Z,32.93
2019-02-03T10:22:58.039Z,29.35
2019-02-03T10:24:01.651Z,32.40
2019-02-03T10:25:08.371Z,28.87
2019-02-03T10:26:11.940Z,32.75
2019-02-03T10:27:15.548Z,29.15
2019-02-03T10:28:19.197Z,29.90
2019-02-03T10:29:22.819Z,34.63
2019-02-03T10:30:27.353Z,29.52
2019-02-03T10:31:30.957Z,29.82
2019-02-03T10:32:34.577Z,25.70
2019-02-03T10:33:38.229Z,26.15
2019-02-03T10:34:41.810Z,28.77
2019-02-03T10:35:45.443Z,28.20
2019-02-03T10:36:49.046Z,37.30
2019-02-03T10:37:52.946Z,26.52
2019-02-03T10:38:56.868Z,22.87
2019-02-03T10:40:00.652Z,30.30
2019-02-03T10:41:04.407Z,24.40
2019-02-03T10:42:08.011Z,23.57
2019-02-03T10:43:12.175Z,29.55
2019-02-03T10:44:15.758Z,26.60
2019-02-03T10:45:22.030Z,29.35
2019-02-03T10:46:25.699Z,26.97
2019-02-03T10:47:29.335Z,26.52
2019-02-03T10:48:33.118Z,33.83
2019-02-03T10:49:36.768Z,27.27
2019-02-03T10:50:40.648Z,23.42
2019-02-03T10:51:44.322Z,27.70
2019-02-03T10:52:48.261Z,23.15
2019-02-03T10:53:53.248Z,24.37
2019-02-03T10:54:56.887Z,25.52
2019-02-03T10:56:00.580Z,24.52
2019-02-03T10:57:04.316Z,28.47
2019-02-03T10:58:08.281Z,29.90
2019-02-03T10:59:12.121Z,27.90
2019-02-03T11:00:19.037Z,24.00
2019-02-03T11:01:22.671Z,27.50
2019-02-03T11:02:26.296Z,25.12
2019-02-03T11:03:30.048Z,26.23
2019-02-03T11:04:33.724Z,35.23
2019-02-03T11:05:43.312Z,31.37
2019-02-03T11:06:46.896Z,29.72
2019-02-03T11:07:50.725Z,24.80
2019-02-03T11:08:54.373Z,24.92
2019-02-03T11:09:58.354Z,28.73
2019-02-03T11:11:02.002Z,32.80
2019-02-03T11:12:05.971Z,26.80
2019-02-03T11:13:09.644Z,29.00
2019-02-03T11:14:13.395Z,35.58
2019-02-03T11:15:17.656Z,27.55
2019-02-03T11:16:21.312Z,22.15
2019-02-03T11:17:24.938Z,23.15
2019-02-03T11:18:28.632Z,25.75
2019-02-03T11:19:32.256Z,24.00
2019-02-03T11:20:35.996Z,25.25
2019-02-03T11:21:39.699Z,27.82
2019-02-03T11:22:43.353Z,23.83
2019-02-03T11:23:47.285Z,29.05
2019-02-03T11:24:50.958Z,24.77
2019-02-03T11:25:54.565Z,28.07
2019-02-03T11:26:58.245Z,25.05
2019-02-03T11:28:02.080Z,26.45
2019-02-03T11:29:05.771Z,25.60
2019-02-03T11:30:12.426Z,22.27
2019-02-03T11:31:16.008Z,23.05
2019-02-03T11:32:19.680Z,28.38
2019-02-03T11:33:23.364Z,25.02
2019-02-03T11:34:27.032Z,26.70
2019-02-03T11:35:32.025Z,26.02
2019-02-03T11:36:35.742Z,24.52
2019-02-03T11:37:39.626Z,28.87
2019-02-03T11:38:43.534Z,28.25
2019-02-03T11:39:47.210Z,27.93
2019-02-03T11:40:50.871Z,22.67
2019-02-03T11:41:54.475Z,30.43
2019-02-03T11:42:58.301Z,25.25
2019-02-03T11:44:01.995Z,23.35
2019-02-03T11:45:11.226Z,23.95
2019-02-03T11:46:14.939Z,25.00
2019-02-03T11:47:18.603Z,22.48
2019-02-03T11:48:22.318Z,21.68
2019-02-03T11:49:25.940Z,22.82
2019-02-03T11:50:40.813Z,23.95
2019-02-03T11:51:44.438Z,28.57
2019-02-03T11:52:48.133Z,19.52
2019-02-03T11:53:51.740Z,16.20
2019-02-03T11:54:55.342Z,22.10
2019-02-03T11:55:59.355Z,23.47
2019-02-03T11:57:02.981Z,23.15
2019-02-03T11:58:06.944Z,23.77
2019-02-03T11:59:10.571Z,22.73
2019-02-03T12:00:19.667Z,21.37
2019-02-03T12:01:23.311Z,22.00
2019-02-03T12:02:26.890Z,23.70
2019-02-03T12:03:30.538Z,26.42
2019-02-03T12:04:34.141Z,22.77
2019-02-03T12:05:38.166Z,25.77
2019-02-03T12:06:41.845Z,18.62
2019-02-03T12:07:45.505Z,25.68
2019-02-03T12:08:49.135Z,20.60
2019-02-03T12:09:52.765Z,22.37
2019-02-03T12:10:56.347Z,21.65
2019-02-03T12:12:01.207Z,23.47
2019-02-03T12:13:06.406Z,21.52
2019-02-03T12:14:10.296Z,21.40
2019-02-03T12:15:16.487Z,23.60
2019-02-03T12:16:20.191Z,22.87
2019-02-03T12:17:23.832Z,22.77
2019-02-03T12:18:27.435Z,21.40
2019-02-03T12:19:31.045Z,23.22
2019-02-03T12:20:34.658Z,23.00
2019-02-03T12:21:38.315Z,20.20
2019-02-03T12:22:41.887Z,21.95
2019-02-03T12:23:45.572Z,21.57
2019-02-03T12:24:49.162Z,25.10
2019-02-03T12:25:52.816Z,21.68
2019-02-03T12:26:56.486Z,17.40
2019-02-03T12:28:00.107Z,20.52
2019-02-03T12:29:03.847Z,19.40
2019-02-03T12:30:10.711Z,20.68
2019-02-03T12:31:14.614Z,17.85
2019-02-03T12:32:18.210Z,15.85
2019-02-03T12:33:21.835Z,18.45
2019-02-03T12:34:25.547Z,15.50
2019-02-03T12:35:29.507Z,20.77
2019-02-03T12:36:33.156Z,18.73
2019-02-03T12:37:36.834Z,21.55
2019-02-03T12:38:40.462Z,22.25
2019-02-03T12:39:44.047Z,17.42
2019-02-03T12:40:47.648Z,20.37
2019-02-03T12:41:51.275Z,21.77
2019-02-03T12:42:55.015Z,20.37
2019-02-03T12:43:58.785Z,20.27
2019-02-03T12:45:02.487Z,18.87
2019-02-03T12:46:06.334Z,21.20
2019-02-03T12:47:10.271Z,19.32
2019-02-03T12:48:14.072Z,18.15
2019-02-03T12:49:17.721Z,17.50
2019-02-03T12:50:21.330Z,18.85
2019-02-03T12:51:24.939Z,20.45
2019-02-03T12:52:28.549Z,16.07
2019-02-03T12:53:32.205Z,17.07
2019-02-03T12:54:35.789Z,21.48
2019-02-03T12:55:39.407Z,15.45
2019-02-03T12:56:43.019Z,18.87
2019-02-03T12:57:46.877Z,14.90
2019-02-03T12:58:50.557Z,21.33
2019-02-03T12:59:54.149Z,15.25
2019-02-03T13:00:58.070Z,17.67
2019-02-03T13:02:01.673Z,14.70
2019-02-03T13:03:09.319Z,15.58
2019-02-03T13:04:12.954Z,18.52
2019-02-03T13:05:23.249Z,17.52
2019-02-03T13:06:26.900Z,19.62
2019-02-03T13:07:30.483Z,15.30
2019-02-03T13:08:34.167Z,22.20
2019-02-03T13:09:37.751Z,16.55
2019-02-03T13:10:41.336Z,15.13
2019-02-03T13:11:44.996Z,17.30
2019-02-03T13:12:48.743Z,14.33
2019-02-03T13:13:52.433Z,17.35
2019-02-03T13:14:56.065Z,18.73
2019-02-03T13:15:59.761Z,20.43
2019-02-03T13:17:03.495Z,20.68
2019-02-03T13:18:08.014Z,16.70
2019-02-03T13:19:12.046Z,20.75
2019-02-03T13:20:21.658Z,20.48
2019-02-03T13:21:25.576Z,16.23
2019-02-03T13:22:29.155Z,15.78
2019-02-03T13:23:44.288Z,19.23
2019-02-03T13:24:38.004Z,20.50
2019-02-03T13:25:41.810Z,18.70
2019-02-03T13:26:45.522Z,18.17
2019-02-03T13:27:49.356Z,19.00
2019-02-03T13:28:53.024Z,19.37
2019-02-03T13:29:56.612Z,16.10
2019-02-03T13:31:00.236Z,20.88
2019-02-03T13:32:10.878Z,17.57
2019-02-03T13:33:09.575Z,13.43
2019-02-03T13:34:13.210Z,17.62
2019-02-03T13:35:16.948Z,15.93
2019-02-03T13:36:20.579Z,16.65
2019-02-03T13:37:24.404Z,25.62
2019-02-03T13:38:28.148Z,19.87
2019-02-03T13:39:31.817Z,13.45